Time;durP1;ratioP1;P1;durP2;ratioP2;P2;SDS_P1;SDS_P2;PMS_P1;PMS_P2;Temp;Humidity;BMP_temperature;BMP_pressure;BME280_temperature;BME280_humidity;BME280_pressure;Samples;Min_cycle;Max_cycle;Signal;HPM_P1;HPM_P2
2021/12/05 00:24:42;;;;;;;4.97;1.40;;;;;;;;;;5039274;28;20029;-74
2021/12/05 00:27:17;;;;;;;8.13;1.75;;;;;;;;;;5041670;28;20057;-75
2021/12/05 00:32:26;;;;;;;7.65;1.80;;;;;;;;;;5040552;28;20021;-75
2021/12/05 00:40:46;;;;;;;6.78;1.48;;;;;;;;;;5041577;28;20079;-75
2021/12/05 01:07:23;;;;;;;5.00;1.65;;;;;;;;;;5038269;28;20397;-74
2021/12/05 01:10:08;;;;;;;7.55;1.73;;;;;;;;;;5039348;28;20050;-74
2021/12/05 01:15:07;;;;;;;;;;;;;;;;;;5038530;28;20025;-75
2021/12/05 01:17:42;;;;;;;5.90;1.40;;;;;;;;;;5038825;28;19904;-75
2021/12/05 01:20:12;;;;;;;7.68;1.83;;;;;;;;;;5036131;28;20402;-75
2021/12/05 01:22:43;;;;;;;7.93;2.47;;;;;;;;;;5038987;28;20063;-75
2021/12/05 01:25:30;;;;;;;7.72;1.67;;;;;;;;;;5039743;28;20048;-74
2021/12/05 01:44:34;;;;;;;8.23;1.60;;;;;;;;;;5059723;28;20404;-74
2021/12/05 01:57:52;;;;;;;6.82;1.73;;;;;;;;;;5050265;28;20049;-74
2021/12/05 02:07:52;;;;;;;5.25;1.40;;;;;;;;;;5039122;28;20469;-75
2021/12/05 02:35:53;;;;;;;10.27;2.03;;;;;;;;;;5040444;28;20018;-74
2021/12/05 02:41:08;;;;;;;8.20;1.67;;;;;;;;;;5038921;28;20017;-74
2021/12/05 02:43:42;;;;;;;5.45;1.73;;;;;;;;;;5039016;28;20096;-74
2021/12/05 02:46:11;;;;;;;5.72;1.67;;;;;;;;;;5042005;28;20056;-75
2021/12/05 02:48:38;;;;;;;3.83;1.20;;;;;;;;;;5038935;28;20018;-75
2021/12/05 02:51:07;;;;;;;5.18;2.08;;;;;;;;;;5039112;28;20627;-74
2021/12/05 02:53:40;;;;;;;9.60;1.33;;;;;;;;;;5039236;28;20013;-74
2021/12/05 02:56:06;;;;;;;8.52;1.52;;;;;;;;;;5039575;28;20032;-74
2021/12/05 02:58:54;;;;;;;7.10;1.55;;;;;;;;;;5038072;28;20101;-75
2021/12/05 03:01:35;;;;;;;5.68;1.20;;;;;;;;;;5040962;28;20029;-74
2021/12/05 03:04:01;;;;;;;8.32;1.90;;;;;;;;;;5039968;28;20024;-75
2021/12/05 03:06:31;;;;;;;8.43;1.25;;;;;;;;;;5036527;28;20517;-74
2021/12/05 03:08:59;;;;;;;4.32;1.30;;;;;;;;;;5039657;28;20037;-76
2021/12/05 03:11:26;;;;;;;7.03;1.40;;;;;;;;;;5040991;28;20025;-75
2021/12/05 03:13:53;;;;;;;5.40;1.75;;;;;;;;;;5040903;28;20056;-75
2021/12/05 03:16:20;;;;;;;10.30;1.60;;;;;;;;;;5037572;28;20032;-75
2021/12/05 03:18:46;;;;;;;6.53;1.80;;;;;;;;;;5038511;28;20030;-74
2021/12/05 03:21:13;;;;;;;10.32;1.77;;;;;;;;;;5040825;28;20021;-74
2021/12/05 03:23:40;;;;;;;5.95;1.35;;;;;;;;;;5038337;28;20029;-75
2021/12/05 03:26:08;;;;;;;8.32;1.80;;;;;;;;;;5038974;28;20029;-74
2021/12/05 03:28:35;;;;;;;4.78;1.80;;;;;;;;;;5039286;28;20477;-75
2021/12/05 03:31:02;;;;;;;6.82;1.50;;;;;;;;;;5035441;28;20034;-75
2021/12/05 03:33:28;;;;;;;4.97;1.42;;;;;;;;;;5035448;28;20025;-74
2021/12/05 03:35:54;;;;;;;4.07;1.48;;;;;;;;;;5038314;28;20021;-75
2021/12/05 03:38:20;;;;;;;7.53;1.63;;;;;;;;;;5037700;28;20033;-74
2021/12/05 03:40:47;;;;;;;5.20;1.52;;;;;;;;;;5041269;28;20024;-74
2021/12/05 03:43:15;;;;;;;3.40;1.42;;;;;;;;;;5043377;28;20056;-74
2021/12/05 03:45:45;;;;;;;4.15;1.50;;;;;;;;;;5039402;28;20087;-75
2021/12/05 03:48:12;;;;;;;5.20;1.50;;;;;;;;;;5042707;28;20056;-74
2021/12/05 03:50:39;;;;;;;10.45;1.75;;;;;;;;;;5043916;28;20032;-74
2021/12/05 03:53:06;;;;;;;9.23;1.65;;;;;;;;;;5038711;28;20389;-74
2021/12/05 03:55:32;;;;;;;4.70;1.67;;;;;;;;;;5042038;28;20029;-74
2021/12/05 03:57:58;;;;;;;6.97;1.40;;;;;;;;;;5041553;28;20511;-74
2021/12/05 04:00:27;;;;;;;6.95;1.40;;;;;;;;;;5043632;28;20104;-75
2021/12/05 04:02:55;;;;;;;6.93;1.95;;;;;;;;;;5034117;28;20469;-75
2021/12/05 04:05:21;;;;;;;6.43;1.40;;;;;;;;;;5037483;28;20033;-75
2021/12/05 04:07:47;;;;;;;6.68;1.65;;;;;;;;;;5034506;28;20140;-75
2021/12/05 04:10:14;;;;;;;5.80;1.58;;;;;;;;;;5035008;28;20040;-75
2021/12/05 04:12:40;;;;;;;7.15;1.63;;;;;;;;;;5034560;28;20055;-74
2021/12/05 04:15:07;;;;;;;8.20;1.88;;;;;;;;;;5031290;28;20028;-75
2021/12/05 04:17:33;;;;;;;10.23;2.67;;;;;;;;;;5033146;28;20036;-75
2021/12/05 04:19:59;;;;;;;5.28;1.55;;;;;;;;;;5034250;28;20621;-74
2021/12/05 04:22:26;;;;;;;8.57;2.03;;;;;;;;;;5035173;28;20044;-75
2021/12/05 04:24:52;;;;;;;6.38;1.70;;;;;;;;;;5035645;28;20025;-75
2021/12/05 04:27:18;;;;;;;2.90;1.40;;;;;;;;;;5035436;28;20068;-74
2021/12/05 04:29:44;;;;;;;5.38;1.80;;;;;;;;;;5035127;28;20019;-75
2021/12/05 04:32:11;;;;;;;4.85;1.48;;;;;;;;;;5038274;28;20031;-74
2021/12/05 04:34:37;;;;;;;10.85;1.77;;;;;;;;;;5035704;28;20490;-75
2021/12/05 04:37:03;;;;;;;4.13;1.23;;;;;;;;;;5035440;28;20544;-75
2021/12/05 04:39:31;;;;;;;7.38;1.83;;;;;;;;;;5037815;28;20044;-75
2021/12/05 04:41:58;;;;;;;8.23;2.10;;;;;;;;;;5034896;28;20021;-73
2021/12/05 04:44:24;;;;;;;5.40;1.30;;;;;;;;;;5037261;28;20025;-74
2021/12/05 04:46:51;;;;;;;7.50;2.13;;;;;;;;;;5037519;28;20029;-74
2021/12/05 04:49:17;;;;;;;7.75;1.98;;;;;;;;;;5032224;28;20025;-73
2021/12/05 04:51:45;;;;;;;5.55;1.35;;;;;;;;;;5037177;28;20024;-75
2021/12/05 04:54:14;;;;;;;7.03;1.90;;;;;;;;;;5036796;28;20102;-75
2021/12/05 04:56:41;;;;;;;8.40;1.90;;;;;;;;;;5035001;28;20112;-74
2021/12/05 04:59:12;;;;;;;4.22;1.35;;;;;;;;;;5033277;28;20028;-74
2021/12/05 05:01:39;;;;;;;3.67;1.20;;;;;;;;;;5034158;28;20082;-74
2021/12/05 05:04:12;;;;;;;3.53;1.20;;;;;;;;;;5031337;28;20409;-75
2021/12/05 05:06:38;;;;;;;5.10;1.60;;;;;;;;;;5032173;28;20091;-75
2021/12/05 05:09:05;;;;;;;5.60;1.60;;;;;;;;;;5034083;28;20085;-75
2021/12/05 05:11:31;;;;;;;7.45;1.92;;;;;;;;;;5034722;28;20029;-74
2021/12/05 05:13:57;;;;;;;3.05;1.25;;;;;;;;;;5031374;28;20105;-75
2021/12/05 05:16:25;;;;;;;4.63;1.40;;;;;;;;;;5031828;28;20700;-75
2021/12/05 05:18:55;;;;;;;9.52;2.38;;;;;;;;;;5034054;28;20025;-75
2021/12/05 05:40:16;;;;;;;6.50;1.80;;;;;;;;;;5029811;28;20141;-74
2021/12/05 05:48:31;;;;;;;6.57;1.40;;;;;;;;;;5046206;28;20044;-74
2021/12/05 05:50:58;;;;;;;8.05;1.60;;;;;;;;;;5033323;28;20036;-74
2021/12/05 05:53:25;;;;;;;6.00;1.27;;;;;;;;;;5029290;28;20017;-75
2021/12/05 05:55:53;;;;;;;7.70;1.65;;;;;;;;;;5032462;28;20028;-74
2021/12/05 05:58:23;;;;;;;9.32;1.73;;;;;;;;;;5032728;28;20645;-74
2021/12/05 06:01:02;;;;;;;4.35;1.30;;;;;;;;;;5030426;28;20021;-74
2021/12/05 06:03:29;;;;;;;9.73;2.17;;;;;;;;;;5028391;28;20108;-75
2021/12/05 06:06:00;;;;;;;5.28;1.58;;;;;;;;;;5033184;28;20025;-74
2021/12/05 06:08:27;;;;;;;5.10;1.70;;;;;;;;;;5032394;28;20033;-75
2021/12/05 06:10:54;;;;;;;7.90;1.50;;;;;;;;;;5030338;28;20017;-74
2021/12/05 06:13:21;;;;;;;4.95;1.30;;;;;;;;;;5031603;28;20036;-74
2021/12/05 06:15:48;;;;;;;3.38;1.38;;;;;;;;;;5031578;28;20520;-75
2021/12/05 06:18:14;;;;;;;6.80;1.45;;;;;;;;;;5033461;28;20029;-74
2021/12/05 06:20:41;;;;;;;4.97;1.27;;;;;;;;;;5030712;28;20029;-76
2021/12/05 06:23:07;;;;;;;3.55;1.42;;;;;;;;;;5031975;28;20052;-75
2021/12/05 06:25:35;;;;;;;11.00;2.53;;;;;;;;;;5029579;28;20031;-75
2021/12/05 06:28:05;;;;;;;2.97;1.33;;;;;;;;;;5028942;28;20231;-75
2021/12/05 06:38:55;;;;;;;4.20;1.50;;;;;;;;;;5032994;28;20064;-75
2021/12/05 06:46:34;;;;;;;4.70;1.48;;;;;;;;;;5030705;28;20053;-75
2021/12/05 06:49:00;;;;;;;6.60;1.40;;;;;;;;;;5031720;28;20061;-75
2021/12/05 06:51:27;;;;;;;7.80;1.40;;;;;;;;;;5029952;28;20031;-74
2021/12/05 06:53:55;;;;;;;4.28;1.48;;;;;;;;;;5028905;28;20022;-75
2021/12/05 06:56:21;;;;;;;2.80;1.08;;;;;;;;;;5031200;28;20463;-75
2021/12/05 06:58:48;;;;;;;2.78;1.30;;;;;;;;;;5032870;28;20029;-75
2021/12/05 07:01:15;;;;;;;6.65;1.60;;;;;;;;;;5030002;28;20021;-75
2021/12/05 07:03:44;;;;;;;5.55;1.52;;;;;;;;;;5029827;28;20027;-74
2021/12/05 07:06:13;;;;;;;4.15;1.45;;;;;;;;;;5032493;28;20067;-75
2021/12/05 07:08:42;;;;;;;5.55;1.25;;;;;;;;;;5030389;28;20034;-75
2021/12/05 07:16:41;;;;;;;5.68;1.50;;;;;;;;;;5036369;28;20043;-74
2021/12/05 07:19:26;;;;;;;8.15;1.65;;;;;;;;;;5035174;28;20029;-74
2021/12/05 07:22:14;;;;;;;8.38;1.70;;;;;;;;;;5036348;28;20072;-75
2021/12/05 07:25:02;;;;;;;6.20;2.13;;;;;;;;;;5030593;28;20061;-75
2021/12/05 07:43:44;;;;;;;4.43;1.52;;;;;;;;;;5033793;28;20034;-75
2021/12/05 07:46:10;;;;;;;8.40;1.88;;;;;;;;;;5032572;28;20086;-75
2021/12/05 07:48:39;;;;;;;3.42;1.50;;;;;;;;;;5035781;28;20025;-75
2021/12/05 07:56:28;;;;;;;8.05;2.05;;;;;;;;;;5034585;28;20029;-76
2021/12/05 07:59:08;;;;;;;5.90;1.70;;;;;;;;;;5033080;28;20424;-75
2021/12/05 08:15:28;;;;;;;4.35;1.80;;;;;;;;;;5035316;28;20040;-75
2021/12/05 08:17:57;;;;;;;8.00;2.25;;;;;;;;;;5032069;28;20028;-75
2021/12/05 08:20:26;;;;;;;7.25;2.42;;;;;;;;;;5032699;28;20038;-75
2021/12/05 08:22:52;;;;;;;9.18;2.42;;;;;;;;;;5032408;28;20594;-75
2021/12/05 08:25:21;;;;;;;7.38;1.92;;;;;;;;;;5033280;28;20021;-75
2021/12/05 08:27:52;;;;;;;8.57;1.90;;;;;;;;;;5033564;28;20075;-75
2021/12/05 08:30:28;;;;;;;9.88;2.20;;;;;;;;;;5031569;28;20105;-74
2021/12/05 08:43:48;;;;;;;;;;;;;;;;;;5033966;28;20022;-75
2021/12/05 09:20:32;;;;;;;5.22;1.27;;;;;;;;;;5042349;28;20071;-75
2021/12/05 09:27:49;;;;;;;3.97;1.83;;;;;;;;;;5036784;28;20041;-75
2021/12/05 10:03:06;;;;;;;3.05;1.33;;;;;;;;;;5033471;28;20095;-75
2021/12/05 10:08:56;;;;;;;3.97;1.40;;;;;;;;;;5036609;28;20089;-75
2021/12/05 10:14:10;;;;;;;3.78;1.33;;;;;;;;;;5032111;28;20087;-75
2021/12/05 10:16:46;;;;;;;2.85;1.23;;;;;;;;;;5033114;28;20040;-75
2021/12/05 10:38:38;;;;;;;3.40;1.30;;;;;;;;;;5029054;28;20068;-74
2021/12/05 10:43:39;;;;;;;3.60;1.40;;;;;;;;;;5031314;28;20036;-73
2021/12/05 10:46:07;;;;;;;5.25;1.67;;;;;;;;;;5032375;28;20469;-74
2021/12/05 10:48:42;;;;;;;11.65;1.70;;;;;;;;;;5028811;28;20493;-74
2021/12/05 10:51:13;;;;;;;3.53;1.60;;;;;;;;;;5034546;28;20505;-74
2021/12/05 10:53:39;;;;;;;5.15;1.65;;;;;;;;;;5033071;28;20025;-74
2021/12/05 10:56:20;;;;;;;4.55;1.40;;;;;;;;;;5033892;28;20026;-74
2021/12/05 10:58:47;;;;;;;6.10;1.80;;;;;;;;;;5036250;28;20477;-76
2021/12/05 11:01:32;;;;;;;5.88;2.17;;;;;;;;;;5035577;28;20036;-73
2021/12/05 11:04:09;;;;;;;3.88;1.55;;;;;;;;;;5032518;28;20037;-74
2021/12/05 11:06:38;;;;;;;4.25;1.35;;;;;;;;;;5030906;28;20040;-71
2021/12/05 11:09:07;;;;;;;3.65;1.65;;;;;;;;;;5032876;28;20140;-74
2021/12/05 11:11:35;;;;;;;7.80;2.78;;;;;;;;;;5033287;28;20021;-73
2021/12/05 11:14:03;;;;;;;14.73;2.53;;;;;;;;;;5032683;28;20022;-73
2021/12/05 11:16:38;;;;;;;6.20;1.92;;;;;;;;;;5030399;28;20454;-73
2021/12/05 11:19:15;;;;;;;5.28;2.10;;;;;;;;;;5034277;28;20021;-74
2021/12/05 11:21:47;;;;;;;6.40;2.45;;;;;;;;;;5032152;28;20026;-73
2021/12/05 11:24:16;;;;;;;9.77;3.15;;;;;;;;;;5031252;28;20029;-72
2021/12/05 11:26:44;;;;;;;5.47;1.63;;;;;;;;;;5032531;28;20513;-74
2021/12/05 11:29:12;;;;;;;5.97;2.22;;;;;;;;;;5034241;28;20026;-73
2021/12/05 11:31:38;;;;;;;4.25;1.67;;;;;;;;;;5032309;28;20032;-71
2021/12/05 11:34:05;;;;;;;7.60;2.72;;;;;;;;;;5032290;28;20637;-73
2021/12/05 11:36:32;;;;;;;5.30;1.60;;;;;;;;;;5032955;28;20032;-73
2021/12/05 11:38:59;;;;;;;3.40;1.65;;;;;;;;;;5030496;28;20551;-73
2021/12/05 11:41:25;;;;;;;6.60;2.03;;;;;;;;;;5030144;28;20075;-72
2021/12/05 11:43:53;;;;;;;6.15;2.40;;;;;;;;;;5035269;28;20021;-73
2021/12/05 11:46:22;;;;;;;4.72;1.52;;;;;;;;;;5032363;28;20059;-72
2021/12/05 11:48:56;;;;;;;5.57;1.70;;;;;;;;;;5031897;28;20683;-73
2021/12/05 11:51:25;;;;;;;5.03;1.80;;;;;;;;;;5031453;28;20548;-73
2021/12/05 11:53:56;;;;;;;7.57;2.00;;;;;;;;;;5027561;28;20302;-74
2021/12/05 11:56:32;;;;;;;7.10;2.47;;;;;;;;;;5029724;28;20242;-73
2021/12/05 11:59:07;;;;;;;6.43;2.10;;;;;;;;;;5032525;28;20056;-74
2021/12/05 12:01:52;;;;;;;7.60;2.50;;;;;;;;;;5032853;28;20104;-72
2021/12/05 12:04:19;;;;;;;7.07;1.95;;;;;;;;;;5033353;28;20774;-74
2021/12/05 12:06:47;;;;;;;6.93;2.13;;;;;;;;;;5032557;28;20088;-73
2021/12/05 12:09:14;;;;;;;5.43;2.03;;;;;;;;;;5026368;28;20045;-73
2021/12/05 12:11:40;;;;;;;4.18;1.38;;;;;;;;;;5032686;28;20032;-74
2021/12/05 12:14:06;;;;;;;9.23;2.80;;;;;;;;;;5034536;28;20029;-73
2021/12/05 12:16:33;;;;;;;13.35;5.45;;;;;;;;;;5046818;28;20029;-73
2021/12/05 12:19:01;;;;;;;8.00;4.10;;;;;;;;;;5028649;28;20468;-73
2021/12/05 12:21:36;;;;;;;6.07;2.75;;;;;;;;;;5029032;28;20033;-73
2021/12/05 12:24:05;;;;;;;4.20;1.80;;;;;;;;;;5026521;28;20021;-72
2021/12/05 12:26:32;;;;;;;6.63;1.88;;;;;;;;;;5029861;28;20064;-72
2021/12/05 12:28:59;;;;;;;6.45;1.88;;;;;;;;;;5030697;28;20145;-74
2021/12/05 12:31:33;;;;;;;3.42;1.52;;;;;;;;;;5026798;28;20075;-74
2021/12/05 12:34:05;;;;;;;9.25;2.47;;;;;;;;;;5024260;28;20036;-74
2021/12/05 12:36:34;;;;;;;9.95;5.20;;;;;;;;;;5030573;28;20095;-73
2021/12/05 12:39:04;;;;;;;14.85;7.90;;;;;;;;;;5030922;28;20032;-71
2021/12/05 12:41:31;;;;;;;6.50;3.10;;;;;;;;;;5029696;28;20029;-73
2021/12/05 12:43:59;;;;;;;8.00;2.25;;;;;;;;;;5026458;28;20723;-73
2021/12/05 12:46:31;;;;;;;7.03;2.17;;;;;;;;;;5025304;28;20580;-72
2021/12/05 12:48:59;;;;;;;5.72;2.80;;;;;;;;;;5031228;28;20033;-72
2021/12/05 12:51:31;;;;;;;5.15;2.20;;;;;;;;;;5032003;28;20032;-73
2021/12/05 12:54:01;;;;;;;5.22;3.22;;;;;;;;;;5031103;28;20037;-73
2021/12/05 12:56:27;;;;;;;5.90;1.92;;;;;;;;;;5032618;28;20087;-71
2021/12/05 12:58:57;;;;;;;6.20;3.08;;;;;;;;;;5027714;28;20029;-71
2021/12/05 13:10:02;;;;;;;10.75;2.58;;;;;;;;;;5028300;28;20132;-71
2021/12/05 13:12:48;;;;;;;14.25;5.60;;;;;;;;;;5029059;28;20022;-75
2021/12/05 13:15:19;;;;;;;13.23;5.07;;;;;;;;;;5028087;28;20516;-71
2021/12/05 13:17:48;;;;;;;18.10;3.33;;;;;;;;;;5029934;28;20099;-74
2021/12/05 13:20:25;;;;;;;10.05;2.95;;;;;;;;;;5029013;28;20394;-72
2021/12/05 13:23:02;;;;;;;7.25;2.08;;;;;;;;;;5030937;28;20527;-71
2021/12/05 13:25:29;;;;;;;5.40;1.40;;;;;;;;;;5031199;28;20078;-71
2021/12/05 13:27:57;;;;;;;1.92;1.00;;;;;;;;;;5030521;28;20185;-72
2021/12/05 13:30:34;;;;;;;0.85;0.40;;;;;;;;;;5029143;28;20053;-71
2021/12/05 13:33:17;;;;;;;9.13;1.35;;;;;;;;;;5029096;28;20515;-75
2021/12/05 13:35:43;;;;;;;4.15;1.02;;;;;;;;;;5032263;28;20032;-71
2021/12/05 13:38:29;;;;;;;4.43;0.82;;;;;;;;;;5030581;28;20450;-70
2021/12/05 13:40:59;;;;;;;4.18;1.23;;;;;;;;;;5030023;28;20022;-71
2021/12/05 13:43:29;;;;;;;3.38;1.00;;;;;;;;;;5030228;28;20021;-71
2021/12/05 13:45:58;;;;;;;6.43;1.45;;;;;;;;;;5032599;28;20028;-71
2021/12/05 13:48:27;;;;;;;4.15;1.20;;;;;;;;;;5030639;28;21015;-71
2021/12/05 13:51:01;;;;;;;5.95;2.65;;;;;;;;;;5031546;28;20032;-72
2021/12/05 13:53:29;;;;;;;4.40;1.80;;;;;;;;;;5029616;28;20494;-73
2021/12/05 13:56:02;;;;;;;5.07;1.30;;;;;;;;;;5030139;28;20598;-72
2021/12/05 13:58:41;;;;;;;7.82;3.72;;;;;;;;;;5033269;28;20029;-71
2021/12/05 14:01:10;;;;;;;4.22;2.13;;;;;;;;;;5030600;28;20029;-71
2021/12/05 14:03:44;;;;;;;7.00;3.22;;;;;;;;;;5029849;28;20125;-71
2021/12/05 14:06:30;;;;;;;5.00;2.17;;;;;;;;;;5029491;28;20588;-71
2021/12/05 14:08:59;;;;;;;3.72;1.45;;;;;;;;;;5032115;28;20082;-73
2021/12/05 14:11:26;;;;;;;3.53;1.10;;;;;;;;;;5025162;28;20055;-72
2021/12/05 14:13:53;;;;;;;7.30;1.10;;;;;;;;;;5031351;28;20040;-74
2021/12/05 14:16:20;;;;;;;3.78;1.38;;;;;;;;;;5032398;28;20542;-71
2021/12/05 14:18:47;;;;;;;6.70;1.20;;;;;;;;;;5028649;28;20033;-71
2021/12/05 14:21:19;;;;;;;9.00;1.60;;;;;;;;;;5031517;28;20465;-72
2021/12/05 14:23:52;;;;;;;6.70;1.05;;;;;;;;;;5031847;28;20032;-73
2021/12/05 14:26:20;;;;;;;2.95;0.80;;;;;;;;;;5030804;28;20033;-72
2021/12/05 14:29:01;;;;;;;2.08;0.70;;;;;;;;;;5030139;28;20029;-71
2021/12/05 14:31:28;;;;;;;4.55;1.88;;;;;;;;;;5031179;28;20032;-72
2021/12/05 14:33:55;;;;;;;3.22;0.85;;;;;;;;;;5027556;28;20025;-74
2021/12/05 14:36:23;;;;;;;1.40;1.25;;;;;;;;;;5028710;28;20033;-74
2021/12/05 14:39:06;;;;;;;0.38;0.30;;;;;;;;;;5026625;28;20083;-72
2021/12/05 14:41:32;;;;;;;1.45;0.40;;;;;;;;;;5030865;28;20032;-72
2021/12/05 14:43:59;;;;;;;2.40;1.10;;;;;;;;;;5025745;28;20498;-71
2021/12/05 14:46:25;;;;;;;16.58;0.70;;;;;;;;;;5025976;28;20135;-71
2021/12/05 14:48:55;;;;;;;6.75;0.43;;;;;;;;;;5027282;28;20033;-70
2021/12/05 14:51:38;;;;;;;3.10;0.80;;;;;;;;;;5030118;28;20033;-70
2021/12/05 14:54:05;;;;;;;3.92;0.80;;;;;;;;;;5025849;28;20111;-72
2021/12/05 14:56:33;;;;;;;1.08;0.40;;;;;;;;;;5025894;28;20024;-71
2021/12/05 14:59:10;;;;;;;1.88;0.45;;;;;;;;;;5028256;28;20061;-72
2021/12/05 15:01:38;;;;;;;2.53;0.60;;;;;;;;;;5025343;28;20025;-70
2021/12/05 15:04:06;;;;;;;5.80;2.60;;;;;;;;;;5031273;28;20036;-71
2021/12/05 15:06:39;;;;;;;4.57;2.42;;;;;;;;;;5028126;28;20132;-70
2021/12/05 15:09:07;;;;;;;2.10;0.90;;;;;;;;;;5026338;28;20401;-72
2021/12/05 15:11:33;;;;;;;6.50;4.63;;;;;;;;;;5026491;28;20032;-71
2021/12/05 15:14:07;;;;;;;2.92;1.60;;;;;;;;;;5031808;28;20033;-71
2021/12/05 15:16:33;;;;;;;2.85;1.00;;;;;;;;;;5026976;28;20030;-74
2021/12/05 15:19:00;;;;;;;2.15;1.20;;;;;;;;;;5023664;28;20451;-73
2021/12/05 15:21:27;;;;;;;1.42;0.80;;;;;;;;;;5025583;28;20033;-72
2021/12/05 15:23:54;;;;;;;3.92;3.53;;;;;;;;;;5026866;28;20557;-71
2021/12/05 15:26:21;;;;;;;7.78;2.75;;;;;;;;;;5026881;28;20382;-72
2021/12/05 15:28:47;;;;;;;1.42;0.68;;;;;;;;;;5027149;28;20646;-71
2021/12/05 15:31:14;;;;;;;5.15;0.50;;;;;;;;;;5030608;28;20034;-71
2021/12/05 15:33:40;;;;;;;9.13;6.53;;;;;;;;;;5027735;28;20108;-72
2021/12/05 15:36:07;;;;;;;6.57;2.40;;;;;;;;;;5032650;28;20040;-72
2021/12/05 15:38:35;;;;;;;3.67;1.80;;;;;;;;;;5030823;28;20477;-73
2021/12/05 15:41:06;;;;;;;2.85;0.80;;;;;;;;;;5034074;28;20047;-71
2021/12/05 15:43:34;;;;;;;3.22;2.35;;;;;;;;;;5035520;28;20036;-72
2021/12/05 15:46:03;;;;;;;5.43;1.95;;;;;;;;;;5027845;28;20373;-71
2021/12/05 15:48:35;;;;;;;5.82;1.73;;;;;;;;;;5031083;28;20862;-71
2021/12/05 15:51:03;;;;;;;4.35;1.52;;;;;;;;;;5025456;28;20033;-70
2021/12/05 15:53:31;;;;;;;5.82;1.35;;;;;;;;;;5034204;28;20059;-73
2021/12/05 15:56:02;;;;;;;1.60;0.77;;;;;;;;;;5033974;28;20444;-71
2021/12/05 15:58:31;;;;;;;1.13;0.57;;;;;;;;;;5032748;28;20067;-72
2021/12/05 16:01:11;;;;;;;6.32;5.18;;;;;;;;;;5031418;28;20020;-73
2021/12/05 16:03:42;;;;;;;5.53;1.67;;;;;;;;;;5032221;28;20567;-73
2021/12/05 16:06:08;;;;;;;1.00;0.50;;;;;;;;;;5031405;28;20029;-74
2021/12/05 16:08:35;;;;;;;0.32;0.22;;;;;;;;;;5032004;28;20049;-71
2021/12/05 16:11:01;;;;;;;0.80;0.25;;;;;;;;;;5031164;28;20017;-71
2021/12/05 16:13:32;;;;;;;3.88;0.45;;;;;;;;;;5034479;28;20022;-71
2021/12/05 16:16:12;;;;;;;0.47;0.33;;;;;;;;;;5031972;28;20619;-71
2021/12/05 16:18:40;;;;;;;1.10;0.50;;;;;;;;;;5034455;28;20270;-73
2021/12/05 16:21:28;;;;;;;2.22;0.45;;;;;;;;;;5026568;28;20029;-72
2021/12/05 16:23:55;;;;;;;1.13;0.50;;;;;;;;;;5035286;28;20026;-70
2021/12/05 16:26:26;;;;;;;4.22;0.50;;;;;;;;;;5027519;28;20060;-70
2021/12/05 16:29:00;;;;;;;0.77;0.52;;;;;;;;;;5037867;28;20991;-71
2021/12/05 16:31:30;;;;;;;1.65;0.50;;;;;;;;;;5028687;28;20029;-70
2021/12/05 16:33:59;;;;;;;1.17;0.40;;;;;;;;;;5031627;28;20680;-70
2021/12/05 16:36:33;;;;;;;1.92;0.40;;;;;;;;;;5029115;28;20055;-70
2021/12/05 16:39:05;;;;;;;2.72;0.70;;;;;;;;;;5029221;28;20037;-70
2021/12/05 16:41:33;;;;;;;0.70;0.40;;;;;;;;;;5025844;28;20025;-71
2021/12/05 16:43:59;;;;;;;4.45;1.25;;;;;;;;;;5033085;28;20032;-70
2021/12/05 16:46:28;;;;;;;1.27;0.52;;;;;;;;;;5030269;28;20033;-71
2021/12/05 16:48:57;;;;;;;2.60;0.45;;;;;;;;;;5028069;28;20033;-73
2021/12/05 16:51:29;;;;;;;1.58;0.77;;;;;;;;;;5031922;28;20026;-74
2021/12/05 16:54:01;;;;;;;1.30;0.60;;;;;;;;;;5031813;28;20032;-70
2021/12/05 16:56:39;;;;;;;1.52;0.88;;;;;;;;;;5029552;28;20547;-71
2021/12/05 16:59:07;;;;;;;0.40;0.40;;;;;;;;;;5031889;28;20057;-71
2021/12/05 17:01:34;;;;;;;1.48;0.43;;;;;;;;;;5034072;28;20033;-71
2021/12/05 17:04:00;;;;;;;4.38;0.70;;;;;;;;;;5032188;28;20139;-71
2021/12/05 17:06:26;;;;;;;0.75;0.40;;;;;;;;;;5028650;28;20514;-71
2021/12/05 17:08:53;;;;;;;2.75;1.27;;;;;;;;;;5033659;28;20680;-72
2021/12/05 17:11:22;;;;;;;4.65;2.63;;;;;;;;;;5031591;28;20112;-74
2021/12/05 17:13:49;;;;;;;9.27;6.65;;;;;;;;;;5030301;28;20029;-71
2021/12/05 17:16:22;;;;;;;4.55;3.17;;;;;;;;;;5033448;28;20086;-71
2021/12/05 17:18:56;;;;;;;1.88;1.17;;;;;;;;;;5032528;28;20115;-74
2021/12/05 17:21:31;;;;;;;2.97;1.60;;;;;;;;;;5026126;28;20037;-73
2021/12/05 17:24:08;;;;;;;1.30;0.60;;;;;;;;;;5030267;28;20521;-72
2021/12/05 17:26:42;;;;;;;1.75;1.10;;;;;;;;;;5028684;28;20094;-71
2021/12/05 17:29:12;;;;;;;4.70;1.10;;;;;;;;;;5026817;28;20136;-72
2021/12/05 17:31:43;;;;;;;3.20;1.83;;;;;;;;;;5029969;28;20129;-72
2021/12/05 17:34:11;;;;;;;3.03;1.00;;;;;;;;;;5028409;28;20028;-74
2021/12/05 17:36:40;;;;;;;2.45;0.90;;;;;;;;;;5024597;28;20028;-73
2021/12/05 17:39:09;;;;;;;2.83;1.80;;;;;;;;;;5025464;28;20568;-73
2021/12/05 17:41:35;;;;;;;2.95;1.60;;;;;;;;;;5026107;28;20421;-71
2021/12/05 17:44:03;;;;;;;3.20;2.53;;;;;;;;;;5027616;28;20044;-72
2021/12/05 17:46:30;;;;;;;20.63;12.20;;;;;;;;;;5028203;28;20037;-74
2021/12/05 17:48:57;;;;;;;8.55;4.97;;;;;;;;;;5027995;28;20033;-71
2021/12/05 17:51:31;;;;;;;5.63;2.50;;;;;;;;;;5027668;28;20040;-72
2021/12/05 17:53:58;;;;;;;2.83;1.48;;;;;;;;;;5028012;28;20033;-73
2021/12/05 17:56:37;;;;;;;5.18;2.80;;;;;;;;;;5028236;28;20051;-71
2021/12/05 17:59:12;;;;;;;4.05;3.00;;;;;;;;;;5027924;28;20558;-72
2021/12/05 18:04:23;;;;;;;1.02;0.60;;;;;;;;;;5027627;28;20044;-73
2021/12/05 18:06:49;;;;;;;2.67;1.10;;;;;;;;;;5021869;28;20047;-72
2021/12/05 18:09:16;;;;;;;2.72;1.10;;;;;;;;;;5027413;28;20098;-73
2021/12/05 18:11:42;;;;;;;1.67;0.80;;;;;;;;;;5026082;28;20032;-72
2021/12/05 18:14:09;;;;;;;1.17;0.73;;;;;;;;;;5023961;28;20408;-71
2021/12/05 18:16:36;;;;;;;1.88;0.60;;;;;;;;;;5027097;28;20174;-74
2021/12/05 18:19:05;;;;;;;4.03;1.30;;;;;;;;;;5027252;28;20080;-72
2021/12/05 18:21:31;;;;;;;2.13;1.30;;;;;;;;;;5028274;28;20695;-71
2021/12/05 18:23:58;;;;;;;1.52;0.60;;;;;;;;;;5030104;28;20439;-72
2021/12/05 18:26:27;;;;;;;2.47;0.68;;;;;;;;;;5025595;28;20083;-73
2021/12/05 18:28:54;;;;;;;1.38;0.50;;;;;;;;;;5026760;28;20025;-72
2021/12/05 18:31:23;;;;;;;2.05;0.65;;;;;;;;;;5027703;28;20040;-74
2021/12/05 18:33:52;;;;;;;5.72;3.67;;;;;;;;;;5020166;28;20108;-71
2021/12/05 18:36:19;;;;;;;2.35;1.40;;;;;;;;;;5022552;28;20022;-72
2021/12/05 18:38:47;;;;;;;1.52;1.10;;;;;;;;;;5030457;28;20109;-71
2021/12/05 18:41:15;;;;;;;2.17;1.20;;;;;;;;;;5025472;28;20506;-71
2021/12/05 18:43:42;;;;;;;0.75;0.60;;;;;;;;;;5022070;28;20044;-73
2021/12/05 18:46:09;;;;;;;2.67;0.80;;;;;;;;;;5026512;28;20060;-74
2021/12/05 18:48:36;;;;;;;3.05;0.68;;;;;;;;;;5026475;28;20038;-74
2021/12/05 18:51:02;;;;;;;1.90;0.65;;;;;;;;;;5028504;28;20502;-71
2021/12/05 18:53:29;;;;;;;2.58;1.17;;;;;;;;;;5026689;28;20466;-74
2021/12/05 18:55:55;;;;;;;1.02;0.40;;;;;;;;;;5027488;28;20033;-74
2021/12/05 18:58:24;;;;;;;2.15;0.77;;;;;;;;;;5024485;28;20029;-73
2021/12/05 19:06:30;;;;;;;0.98;0.22;;;;;;;;;;5027977;28;20048;-73
2021/12/05 19:11:55;;;;;;;1.38;0.22;;;;;;;;;;5028163;28;19935;-75
2021/12/05 19:14:35;;;;;;;1.05;0.45;;;;;;;;;;5027762;28;20108;-74
2021/12/05 19:17:04;;;;;;;0.63;0.28;;;;;;;;;;5033653;28;20029;-73
2021/12/05 19:19:31;;;;;;;0.80;0.20;;;;;;;;;;5027115;28;20120;-73
2021/12/05 19:21:58;;;;;;;0.38;0.22;;;;;;;;;;5028621;28;20143;-74
2021/12/05 19:24:25;;;;;;;0.95;0.47;;;;;;;;;;5033736;28;20108;-73
2021/12/05 19:26:52;;;;;;;0.63;0.30;;;;;;;;;;5028975;28;20072;-72
2021/12/05 19:29:21;;;;;;;1.95;0.40;;;;;;;;;;5027737;28;20035;-73
2021/12/05 19:31:48;;;;;;;0.55;0.30;;;;;;;;;;5031475;28;20356;-72
2021/12/05 19:34:14;;;;;;;0.47;0.30;;;;;;;;;;5025453;28;20026;-73
2021/12/05 19:36:41;;;;;;;1.10;0.60;;;;;;;;;;5028906;28;20014;-73
2021/12/05 19:39:07;;;;;;;0.75;0.50;;;;;;;;;;5031342;28;20481;-72
2021/12/05 19:41:35;;;;;;;1.40;0.80;;;;;;;;;;5030332;28;20060;-74
2021/12/05 19:44:02;;;;;;;0.47;0.38;;;;;;;;;;5030944;28;20029;-71
2021/12/05 19:46:29;;;;;;;2.13;0.40;;;;;;;;;;5030377;28;20032;-74
2021/12/05 19:48:56;;;;;;;0.47;0.40;;;;;;;;;;5028093;28;20025;-71
2021/12/05 19:51:23;;;;;;;1.30;0.90;;;;;;;;;;5028557;28;20037;-74
2021/12/05 19:53:50;;;;;;;3.00;2.00;;;;;;;;;;5029684;28;20025;-74
2021/12/05 19:56:17;;;;;;;3.78;2.22;;;;;;;;;;5027330;28;20531;-74
2021/12/05 19:58:44;;;;;;;3.53;2.15;;;;;;;;;;5027135;28;20060;-74
2021/12/05 20:01:11;;;;;;;4.15;1.95;;;;;;;;;;5030046;28;20027;-74
2021/12/05 20:03:38;;;;;;;1.73;1.00;;;;;;;;;;5030349;28;20342;-72
2021/12/05 20:06:05;;;;;;;2.53;0.88;;;;;;;;;;5031315;28;20084;-74
2021/12/05 20:08:32;;;;;;;3.45;1.55;;;;;;;;;;5029142;28;20035;-73
2021/12/05 20:10:59;;;;;;;1.02;0.38;;;;;;;;;;5032576;28;20607;-74
2021/12/05 20:13:26;;;;;;;0.38;0.38;;;;;;;;;;5031583;28;20072;-73
2021/12/05 20:15:53;;;;;;;0.52;0.40;;;;;;;;;;5030501;28;20033;-74
2021/12/05 20:18:19;;;;;;;1.30;1.00;;;;;;;;;;5031524;28;20021;-73
2021/12/05 20:20:47;;;;;;;1.38;0.40;;;;;;;;;;5032933;28;20033;-73
2021/12/05 20:23:16;;;;;;;0.68;0.35;;;;;;;;;;5027820;28;20038;-72
2021/12/05 20:25:42;;;;;;;0.68;0.50;;;;;;;;;;5032190;28;20053;-74
2021/12/05 20:28:09;;;;;;;0.30;0.30;;;;;;;;;;5034777;28;20607;-71